createdAt,value
2022-10-13T00:00:49.570Z,13.40
2022-10-13T00:03:17.867Z,13.42
2022-10-13T00:05:46.903Z,13.43
2022-10-13T00:08:18.835Z,13.44
2022-10-13T00:10:47.212Z,13.46
2022-10-13T00:13:15.515Z,13.44
2022-10-13T00:15:47.083Z,13.51
2022-10-13T00:18:15.370Z,13.57
2022-10-13T00:20:43.928Z,13.49
2022-10-13T00:23:11.834Z,13.51
2022-10-13T00:25:43.983Z,13.46
2022-10-13T00:28:11.956Z,13.51
2022-10-13T00:30:40.159Z,13.43
2022-10-13T00:33:08.019Z,13.40
2022-10-13T00:35:41.369Z,13.45
2022-10-13T00:38:09.063Z,13.45
2022-10-13T00:40:46.080Z,13.46
2022-10-13T00:43:18.531Z,13.47
2022-10-13T00:45:49.728Z,13.45
2022-10-13T00:48:18.641Z,13.50
2022-10-13T00:50:46.706Z,13.47
2022-10-13T00:53:16.418Z,13.44
2022-10-13T00:55:45.925Z,13.47
2022-10-13T00:58:15.955Z,13.38
2022-10-13T01:00:46.280Z,13.44
2022-10-13T01:03:13.949Z,13.43
2022-10-13T01:05:42.743Z,13.33
2022-10-13T01:08:12.420Z,13.40
2022-10-13T01:10:49.650Z,13.39
2022-10-13T01:13:23.469Z,13.38
2022-10-13T01:15:56.019Z,13.45
2022-10-13T01:18:29.932Z,13.45
2022-10-13T01:21:17.204Z,13.31
2022-10-13T01:24:13.381Z,13.34
2022-10-13T01:27:20.846Z,13.37
2022-10-13T01:30:11.484Z,13.43
2022-10-13T01:32:49.716Z,13.42
2022-10-13T01:35:20.091Z,13.32
2022-10-13T01:37:51.951Z,13.26
2022-10-13T01:40:24.331Z,13.20
2022-10-13T01:42:58.932Z,13.23
2022-10-13T01:45:33.159Z,13.28
2022-10-13T01:48:02.685Z,13.35
2022-10-13T01:50:30.857Z,13.33
2022-10-13T01:53:00.580Z,13.29
2022-10-13T01:55:29.539Z,13.31
2022-10-13T01:57:57.213Z,13.28
2022-10-13T02:00:25.848Z,13.21
2022-10-13T02:03:06.835Z,13.21
2022-10-13T02:05:40.644Z,13.15
2022-10-13T02:08:12.316Z,13.13
2022-10-13T02:10:47.258Z,13.09
2022-10-13T02:13:16.812Z,13.08
2022-10-13T02:15:46.760Z,13.05
2022-10-13T02:18:17.137Z,13.11
2022-10-13T02:20:46.058Z,13.10
2022-10-13T02:23:16.126Z,13.07
2022-10-13T02:25:44.816Z,13.06
2022-10-13T02:28:14.132Z,13.00
2022-10-13T02:30:41.908Z,13.03
2022-10-13T02:33:10.172Z,13.05
2022-10-13T02:35:39.403Z,13.00
2022-10-13T02:38:07.409Z,12.94
2022-10-13T02:40:35.238Z,12.91
2022-10-13T02:43:02.895Z,12.89
2022-10-13T02:45:30.564Z,12.92
2022-10-13T02:47:58.789Z,12.90
2022-10-13T02:50:26.518Z,12.86
2022-10-13T02:52:55.505Z,12.90
2022-10-13T02:55:23.180Z,12.97
2022-10-13T02:57:50.833Z,12.92
2022-10-13T03:00:18.655Z,12.91
2022-10-13T03:02:46.297Z,12.88
2022-10-13T03:05:14.051Z,12.78
2022-10-13T03:07:41.704Z,12.70
2022-10-13T03:10:10.792Z,12.70
2022-10-13T03:12:38.440Z,12.64
2022-10-13T03:15:06.882Z,12.66
2022-10-13T03:17:34.578Z,12.66
2022-10-13T03:20:03.522Z,12.71
2022-10-13T03:22:32.630Z,12.67
2022-10-13T03:25:00.352Z,12.69
2022-10-13T03:27:29.301Z,12.68
2022-10-13T03:29:56.967Z,12.57
2022-10-13T03:32:24.648Z,12.55
2022-10-13T03:34:52.535Z,12.68
2022-10-13T03:37:20.201Z,12.70
2022-10-13T03:39:47.854Z,12.70
2022-10-13T03:42:15.518Z,12.69
2022-10-13T03:44:44.687Z,12.64
2022-10-13T03:47:12.325Z,12.60
2022-10-13T03:49:39.979Z,12.59
2022-10-13T03:52:07.760Z,12.54
2022-10-13T03:54:35.436Z,12.53
2022-10-13T03:57:03.096Z,12.46
2022-10-13T03:59:36.401Z,12.46
2022-10-13T04:02:06.815Z,12.48
2022-10-13T04:04:35.144Z,12.52
2022-10-13T04:07:03.027Z,12.54
2022-10-13T04:09:30.843Z,12.56
2022-10-13T04:11:58.531Z,12.50
2022-10-13T04:14:26.616Z,12.50
2022-10-13T04:16:54.240Z,12.42
2022-10-13T04:19:23.253Z,12.40
2022-10-13T04:21:51.374Z,12.41
2022-10-13T04:24:19.081Z,12.45
2022-10-13T04:26:47.200Z,12.49
2022-10-13T04:29:14.868Z,12.45
2022-10-13T04:31:43.768Z,12.52
2022-10-13T04:34:12.049Z,12.50
2022-10-13T04:36:42.489Z,12.51
2022-10-13T04:39:10.147Z,12.48
2022-10-13T04:41:37.796Z,12.46
2022-10-13T04:44:05.678Z,12.45
2022-10-13T04:46:33.408Z,12.39
2022-10-13T04:49:02.992Z,12.38
2022-10-13T04:51:30.649Z,12.38
2022-10-13T04:54:03.839Z,12.41
2022-10-13T04:56:31.535Z,12.38
2022-10-13T04:58:59.669Z,12.46
2022-10-13T05:01:27.807Z,12.42
2022-10-13T05:03:56.326Z,12.47
2022-10-13T05:06:27.298Z,12.47
2022-10-13T05:08:55.828Z,12.46
2022-10-13T05:11:25.367Z,12.47
2022-10-13T05:13:53.435Z,12.38
2022-10-13T05:16:22.146Z,12.41
2022-10-13T05:18:50.401Z,12.39
2022-10-13T05:21:19.546Z,12.42
2022-10-13T05:23:47.391Z,12.44
2022-10-13T05:26:16.650Z,12.41
2022-10-13T05:28:46.147Z,12.40
2022-10-13T05:31:16.249Z,12.47
2022-10-13T05:33:44.636Z,12.40
2022-10-13T05:36:14.165Z,12.40
2022-10-13T05:38:41.890Z,12.36
2022-10-13T05:41:11.036Z,12.35
2022-10-13T05:43:39.417Z,12.31
2022-10-13T05:46:08.775Z,12.29
2022-10-13T05:48:37.029Z,12.36
2022-10-13T05:51:07.790Z,12.27
2022-10-13T05:53:37.832Z,12.16
2022-10-13T05:56:08.246Z,12.12
2022-10-13T05:58:37.624Z,12.19
2022-10-13T06:01:08.056Z,12.20
2022-10-13T06:03:36.408Z,12.27
2022-10-13T06:06:05.188Z,12.20
2022-10-13T06:08:32.929Z,12.16
2022-10-13T06:11:00.618Z,12.20
2022-10-13T06:13:29.951Z,12.29
2022-10-13T06:15:57.677Z,12.31
2022-10-13T06:18:26.852Z,12.33
2022-10-13T06:20:54.560Z,12.34
2022-10-13T06:23:22.241Z,12.22
2022-10-13T06:25:49.962Z,12.06
2022-10-13T06:28:19.101Z,12.17
2022-10-13T06:30:49.224Z,12.19
2022-10-13T06:33:17.116Z,12.10
2022-10-13T06:35:46.151Z,12.24
2022-10-13T06:38:14.155Z,12.24
2022-10-13T06:40:42.029Z,12.26
2022-10-13T06:43:09.940Z,12.24
2022-10-13T06:45:37.678Z,12.28
2022-10-13T06:48:05.921Z,12.30
2022-10-13T06:50:33.617Z,12.19
2022-10-13T06:53:03.030Z,12.24
2022-10-13T06:55:30.713Z,12.15
2022-10-13T06:57:58.395Z,12.18
2022-10-13T07:00:26.337Z,12.00
2022-10-13T07:02:54.124Z,12.21
2022-10-13T07:05:21.786Z,12.25
2022-10-13T07:07:49.436Z,12.23
2022-10-13T07:10:18.516Z,12.21
2022-10-13T07:12:46.348Z,12.18
2022-10-13T07:15:14.082Z,12.21
2022-10-13T07:17:41.765Z,12.22
2022-10-13T07:20:10.299Z,12.23
2022-10-13T07:22:38.685Z,12.25
2022-10-13T07:25:07.674Z,12.10
2022-10-13T07:27:38.115Z,12.11
2022-10-13T07:30:07.040Z,12.05
2022-10-13T07:32:34.734Z,12.16
2022-10-13T07:35:03.407Z,12.12
2022-10-13T07:37:31.085Z,12.08
2022-10-13T07:40:00.275Z,11.95
2022-10-13T07:42:30.178Z,11.93
2022-10-13T07:44:59.326Z,12.06
2022-10-13T07:47:27.028Z,12.17
2022-10-13T07:49:55.670Z,12.22
2022-10-13T07:52:23.824Z,12.14
2022-10-13T07:54:51.644Z,12.18
2022-10-13T07:57:19.389Z,12.29
2022-10-13T07:59:47.076Z,12.44
2022-10-13T08:02:16.114Z,12.44
2022-10-13T08:04:43.785Z,12.39
2022-10-13T08:07:11.469Z,12.33
2022-10-13T08:09:39.385Z,12.37
2022-10-13T08:12:07.396Z,12.29
2022-10-13T08:14:35.358Z,12.39
2022-10-13T08:17:03.053Z,12.42
2022-10-13T08:19:32.085Z,12.41
2022-10-13T08:22:00.311Z,12.43
2022-10-13T08:24:28.633Z,12.59
2022-10-13T08:26:56.415Z,12.59
2022-10-13T08:29:24.598Z,12.60
2022-10-13T08:31:53.291Z,12.63
2022-10-13T08:34:22.278Z,12.61
2022-10-13T08:36:53.354Z,12.72
2022-10-13T08:39:22.205Z,12.68
2022-10-13T08:41:50.014Z,12.76
2022-10-13T08:47:14.795Z,12.84
2022-10-13T08:49:43.264Z,12.87
2022-10-13T08:52:18.345Z,12.90
2022-10-13T08:54:46.432Z,12.94
2022-10-13T08:57:14.445Z,13.02
2022-10-13T08:59:42.134Z,13.01
2022-10-13T09:02:13.480Z,13.02
2022-10-13T09:04:43.374Z,13.09
2022-10-13T09:07:15.389Z,13.13
2022-10-13T09:09:43.240Z,13.18
2022-10-13T09:12:11.810Z,13.24
2022-10-13T09:14:40.841Z,13.36
2022-10-13T09:17:16.942Z,13.40
2022-10-13T09:19:44.811Z,13.42
2022-10-13T09:22:21.041Z,13.45
2022-10-13T09:24:48.912Z,13.57
2022-10-13T09:27:17.676Z,13.57
2022-10-13T09:29:45.768Z,13.55
2022-10-13T09:32:19.670Z,13.60
2022-10-13T09:34:47.797Z,13.59
2022-10-13T09:37:22.356Z,13.63
2022-10-13T09:40:02.935Z,13.72
2022-10-13T09:42:31.685Z,13.70
2022-10-13T09:45:01.587Z,13.79
2022-10-13T09:47:32.973Z,13.86
2022-10-13T09:50:07.387Z,13.77
2022-10-13T09:52:36.611Z,13.87
2022-10-13T09:55:10.222Z,13.91
2022-10-13T09:57:42.931Z,14.04
2022-10-13T10:00:17.389Z,14.06
2022-10-13T10:02:53.290Z,14.07
2022-10-13T10:05:26.001Z,14.15
2022-10-13T10:07:57.975Z,14.23
2022-10-13T10:10:30.728Z,14.26
2022-10-13T10:12:58.431Z,14.31
2022-10-13T10:15:30.898Z,14.43
2022-10-13T10:18:01.077Z,14.42
2022-10-13T10:20:51.572Z,14.37
2022-10-13T10:23:29.529Z,14.43
2022-10-13T10:26:00.847Z,14.60
2022-10-13T10:28:40.669Z,14.48
2022-10-13T10:31:20.329Z,14.51
2022-10-13T10:33:58.325Z,14.56
2022-10-13T10:36:30.417Z,14.54
2022-10-13T10:39:04.665Z,14.44
2022-10-13T10:41:41.605Z,14.55
2022-10-13T10:44:11.207Z,14.74
2022-10-13T10:46:41.792Z,14.56
2022-10-13T10:49:15.413Z,14.60
2022-10-13T10:51:43.347Z,14.75
2022-10-13T10:54:23.245Z,14.62
2022-10-13T10:56:54.302Z,14.74
2022-10-13T10:59:29.226Z,14.85
2022-10-13T11:02:03.699Z,14.78
2022-10-13T11:04:40.118Z,15.00
2022-10-13T11:07:12.257Z,15.06
2022-10-13T11:10:04.588Z,15.02
2022-10-13T11:13:26.217Z,15.09
2022-10-13T11:15:55.388Z,15.22
2022-10-13T11:18:58.854Z,15.23
2022-10-13T11:21:26.820Z,15.42
2022-10-13T11:23:58.444Z,15.37
2022-10-13T11:26:32.692Z,15.32
2022-10-13T11:29:00.739Z,15.29
2022-10-13T11:31:37.163Z,15.38
2022-10-13T11:34:04.828Z,15.51
2022-10-13T11:36:38.683Z,15.49
2022-10-13T11:39:33.135Z,15.52
2022-10-13T11:42:06.884Z,15.56
2022-10-13T11:44:37.361Z,15.53
2022-10-13T11:47:10.239Z,15.73
2022-10-13T11:49:52.137Z,15.82
2022-10-13T11:52:40.348Z,15.78
2022-10-13T11:55:12.728Z,15.66
2022-10-13T11:57:41.734Z,15.79
2022-10-13T12:00:14.888Z,15.65
2022-10-13T12:02:49.175Z,15.74
2022-10-13T12:05:28.004Z,15.87
2022-10-13T12:07:56.965Z,15.92
2022-10-13T12:10:29.388Z,15.89
2022-10-13T12:12:59.069Z,15.73
2022-10-13T12:15:31.605Z,15.88
2022-10-13T12:17:59.397Z,15.95
2022-10-13T12:20:28.616Z,15.88
2022-10-13T12:22:57.746Z,16.07
2022-10-13T12:25:27.037Z,16.17
2022-10-13T12:27:56.488Z,16.24
2022-10-13T12:30:27.628Z,16.03
2022-10-13T12:32:56.481Z,16.30
2022-10-13T12:35:26.076Z,16.05
2022-10-13T12:37:54.997Z,16.17
2022-10-13T12:40:22.853Z,16.28
2022-10-13T12:42:50.724Z,16.25
2022-10-13T12:45:19.965Z,16.32
2022-10-13T12:47:50.967Z,16.26
2022-10-13T12:50:35.335Z,16.29
2022-10-13T12:53:15.789Z,16.39
2022-10-13T12:55:56.103Z,16.48
2022-10-13T12:58:26.937Z,16.53
2022-10-13T13:01:20.117Z,16.42
2022-10-13T13:03:55.226Z,16.40
2022-10-13T13:06:26.658Z,16.29
2022-10-13T13:09:20.102Z,16.24
2022-10-13T13:11:47.875Z,16.41
2022-10-13T13:14:32.459Z,16.51
2022-10-13T13:17:05.295Z,16.35
2022-10-13T13:19:35.176Z,16.41
2022-10-13T13:22:03.731Z,16.50
2022-10-13T13:24:39.812Z,16.40
2022-10-13T13:27:20.140Z,16.43
2022-10-13T13:29:48.343Z,16.31
2022-10-13T13:32:19.928Z,16.41
2022-10-13T13:34:49.584Z,16.37
2022-10-13T13:37:24.605Z,16.46
2022-10-13T13:39:52.534Z,16.44
2022-10-13T13:42:20.409Z,16.52
2022-10-13T13:44:48.093Z,16.48
2022-10-13T13:47:18.622Z,16.49
2022-10-13T13:49:46.601Z,16.44
2022-10-13T13:52:15.636Z,16.41
2022-10-13T13:54:43.343Z,16.40
2022-10-13T13:57:11.724Z,16.31
2022-10-13T13:59:39.484Z,16.37
2022-10-13T14:02:11.349Z,16.24
2022-10-13T14:04:39.036Z,16.37
2022-10-13T14:07:06.695Z,16.33
2022-10-13T14:09:35.709Z,16.38
2022-10-13T14:12:03.391Z,16.39
2022-10-13T14:14:31.213Z,16.28
2022-10-13T14:16:58.975Z,16.25
2022-10-13T14:19:26.741Z,16.31
2022-10-13T14:21:54.395Z,16.37
2022-10-13T14:24:22.292Z,16.37
2022-10-13T14:26:51.285Z,16.39
2022-10-13T14:29:18.949Z,16.38
2022-10-13T14:31:46.645Z,16.44
2022-10-13T14:34:14.348Z,16.46
2022-10-13T14:36:41.997Z,16.45
2022-10-13T14:39:09.823Z,16.51
2022-10-13T14:41:38.748Z,16.52
2022-10-13T14:44:07.833Z,16.41
2022-10-13T14:46:35.514Z,16.48
2022-10-13T14:49:03.160Z,16.51
2022-10-13T14:51:30.840Z,16.53
2022-10-13T14:53:58.571Z,16.54
2022-10-13T14:56:27.674Z,16.49
2022-10-13T14:58:57.720Z,16.47
2022-10-13T15:01:27.301Z,16.42
2022-10-13T15:03:55.050Z,16.50
2022-10-13T15:06:24.520Z,16.55
2022-10-13T15:08:52.525Z,16.53
2022-10-13T15:11:21.688Z,16.52
2022-10-13T15:13:49.352Z,16.54
2022-10-13T15:16:18.577Z,16.44
2022-10-13T15:18:47.842Z,16.56
2022-10-13T15:21:15.697Z,16.48
2022-10-13T15:23:43.734Z,16.41
2022-10-13T15:26:12.222Z,16.45
2022-10-13T15:28:41.034Z,16.49
2022-10-13T15:31:09.121Z,16.52
2022-10-13T15:33:37.548Z,16.52
2022-10-13T15:36:07.093Z,16.44
2022-10-13T15:38:34.748Z,16.46
2022-10-13T15:41:04.777Z,16.43
2022-10-13T15:43:33.357Z,16.43
2022-10-13T15:46:03.009Z,16.35
2022-10-13T15:48:30.891Z,16.37
2022-10-13T15:50:58.717Z,16.43
2022-10-13T15:53:27.907Z,16.52
2022-10-13T15:55:55.599Z,16.49
2022-10-13T15:58:23.814Z,16.48
2022-10-13T16:00:51.526Z,16.50
2022-10-13T16:03:19.542Z,16.44
2022-10-13T16:05:48.607Z,16.40
2022-10-13T16:08:16.309Z,16.39
2022-10-13T16:10:45.304Z,16.42
2022-10-13T16:13:14.967Z,16.43
2022-10-13T16:15:42.717Z,16.38
2022-10-13T16:18:10.413Z,16.42
2022-10-13T16:20:40.556Z,16.42
2022-10-13T16:23:08.225Z,16.41
2022-10-13T16:25:39.761Z,16.40
2022-10-13T16:28:08.786Z,16.35
2022-10-13T16:30:37.185Z,16.35
2022-10-13T16:33:04.979Z,16.38
2022-10-13T16:35:34.191Z,16.37
2022-10-13T16:38:01.985Z,16.38
2022-10-13T16:40:29.641Z,16.35
2022-10-13T16:42:57.347Z,16.36
2022-10-13T16:45:48.021Z,16.37
2022-10-13T16:48:14.292Z,16.35
2022-10-13T16:50:42.030Z,16.38
2022-10-13T16:53:10.999Z,16.35
2022-10-13T16:55:40.282Z,16.31
2022-10-13T16:58:08.122Z,16.34
2022-10-13T17:00:37.676Z,16.34
2022-10-13T17:03:05.697Z,16.33
2022-10-13T17:05:33.877Z,16.36
2022-10-13T17:08:02.955Z,16.38
2022-10-13T17:10:30.672Z,16.34
2022-10-13T17:12:58.385Z,16.32
2022-10-13T17:15:26.103Z,16.32
2022-10-13T17:17:56.319Z,16.30
2022-10-13T17:20:24.039Z,16.35
2022-10-13T17:22:51.746Z,16.29
2022-10-13T17:25:19.437Z,16.30
2022-10-13T17:27:48.360Z,16.32
2022-10-13T17:30:16.173Z,16.29
2022-10-13T17:32:43.910Z,16.27
2022-10-13T17:35:17.828Z,16.26
2022-10-13T17:37:45.577Z,16.22
2022-10-13T17:40:13.333Z,16.13
2022-10-13T17:42:41.246Z,16.08
2022-10-13T17:45:10.086Z,16.11
2022-10-13T17:47:37.785Z,16.13
2022-10-13T17:50:06.242Z,16.17
2022-10-13T17:52:35.340Z,16.20
2022-10-13T17:55:04.539Z,16.24
2022-10-13T17:57:32.278Z,16.22
2022-10-13T17:59:59.965Z,16.22
2022-10-13T18:02:27.665Z,16.22
2022-10-13T18:04:55.355Z,16.20
2022-10-13T18:07:23.465Z,16.26
2022-10-13T18:09:53.181Z,16.22
2022-10-13T18:12:21.142Z,16.23
2022-10-13T18:14:48.856Z,16.29
2022-10-13T18:17:16.609Z,16.26
2022-10-13T18:19:44.372Z,16.29
2022-10-13T18:22:12.096Z,16.30
2022-10-13T18:24:39.926Z,16.30
2022-10-13T18:27:09.213Z,16.21
2022-10-13T18:29:37.165Z,16.21
2022-10-13T18:32:05.117Z,16.27
2022-10-13T18:34:32.945Z,16.28
2022-10-13T18:37:00.719Z,16.30
2022-10-13T18:39:29.951Z,16.33
2022-10-13T18:41:58.073Z,16.26
2022-10-13T18:44:27.153Z,16.22
2022-10-13T18:46:56.389Z,16.23
2022-10-13T18:49:30.846Z,16.33
2022-10-13T18:51:59.269Z,16.26
2022-10-13T18:54:27.229Z,16.29
2022-10-13T18:56:54.921Z,16.37
2022-10-13T18:59:22.882Z,16.27
2022-10-13T19:01:51.942Z,16.26
2022-10-13T19:04:21.380Z,16.28
2022-10-13T19:06:49.273Z,16.24
2022-10-13T19:09:18.913Z,16.24
2022-10-13T19:11:46.646Z,16.21
2022-10-13T19:14:14.526Z,16.24
2022-10-13T19:16:43.916Z,16.25
2022-10-13T19:19:13.101Z,16.30
2022-10-13T19:21:41.277Z,16.26
2022-10-13T19:24:09.342Z,16.26
2022-10-13T19:26:37.702Z,16.30
2022-10-13T19:29:07.988Z,16.29
2022-10-13T19:31:36.857Z,16.30
2022-10-13T19:34:05.540Z,16.34
2022-10-13T19:36:37.370Z,16.34
2022-10-13T19:39:07.445Z,16.30
2022-10-13T19:41:35.544Z,16.26
2022-10-13T19:44:04.062Z,16.31
2022-10-13T19:46:31.774Z,16.35
2022-10-13T19:48:59.432Z,16.33
2022-10-13T19:51:27.133Z,16.31
2022-10-13T19:53:56.161Z,16.33
2022-10-13T19:56:26.604Z,16.35
2022-10-13T19:58:54.618Z,16.33
2022-10-13T20:01:22.948Z,16.38
2022-10-13T20:03:51.235Z,16.34
2022-10-13T20:06:19.725Z,16.40
2022-10-13T20:08:47.804Z,16.37
2022-10-13T20:11:23.381Z,16.30
2022-10-13T20:13:52.273Z,16.35
2022-10-13T20:16:23.066Z,16.38
2022-10-13T20:18:52.571Z,16.29
2022-10-13T20:21:20.395Z,16.29
2022-10-13T20:23:48.260Z,16.25
2022-10-13T20:26:17.470Z,16.17
2022-10-13T20:28:46.820Z,16.13
2022-10-13T20:31:15.774Z,15.98
2022-10-13T20:33:44.100Z,16.17
2022-10-13T20:36:13.532Z,16.24
2022-10-13T20:38:41.367Z,16.10
2022-10-13T20:41:11.746Z,16.23
2022-10-13T20:43:40.853Z,16.22
2022-10-13T20:46:10.009Z,16.18
2022-10-13T20:49:05.112Z,16.01
2022-10-13T20:51:27.105Z,16.05
2022-10-13T20:53:54.915Z,16.19
2022-10-13T20:56:25.251Z,16.11
2022-10-13T20:58:54.813Z,16.18
2022-10-13T21:01:23.685Z,16.26
2022-10-13T21:03:54.574Z,16.23
2022-10-13T21:06:23.328Z,16.28
2022-10-13T21:08:51.057Z,16.27
2022-10-13T21:11:20.062Z,16.34
2022-10-13T21:13:48.386Z,16.34
2022-10-13T21:16:19.424Z,16.40
2022-10-13T21:18:51.057Z,16.37
2022-10-13T21:21:20.449Z,16.43
2022-10-13T21:23:50.438Z,16.42
2022-10-13T21:26:21.641Z,16.42
2022-10-13T21:28:50.082Z,16.44
2022-10-13T21:31:21.010Z,16.40
2022-10-13T21:33:49.030Z,16.35
2022-10-13T21:36:18.584Z,16.34
2022-10-13T21:38:47.346Z,16.37
2022-10-13T21:41:15.762Z,16.39
2022-10-13T21:43:43.517Z,16.37
2022-10-13T21:46:11.652Z,16.36
2022-10-13T21:48:40.863Z,16.32
2022-10-13T21:51:13.454Z,16.25
2022-10-13T21:53:41.404Z,16.04
2022-10-13T21:56:11.241Z,16.21
2022-10-13T21:58:39.525Z,16.12
2022-10-13T22:01:07.650Z,16.09
2022-10-13T22:03:35.994Z,16.07
2022-10-13T22:06:15.896Z,16.11
2022-10-13T22:08:47.344Z,16.10
2022-10-13T22:11:15.666Z,16.13
2022-10-13T22:13:43.543Z,16.21
2022-10-13T22:16:14.089Z,16.03
2022-10-13T22:18:42.545Z,16.05
2022-10-13T22:21:13.868Z,16.00
2022-10-13T22:23:41.921Z,16.12
2022-10-13T22:26:10.348Z,16.26
2022-10-13T22:28:38.408Z,16.22
2022-10-13T22:31:06.902Z,16.24
2022-10-13T22:33:35.852Z,16.34
2022-10-13T22:36:07.243Z,16.36
2022-10-13T22:38:36.708Z,16.19
2022-10-13T22:41:04.928Z,16.23
2022-10-13T22:43:32.966Z,16.28
2022-10-13T22:46:03.055Z,16.37
2022-10-13T22:48:30.782Z,16.12
2022-10-13T22:50:58.671Z,16.11
2022-10-13T22:53:26.394Z,16.12
2022-10-13T22:55:55.493Z,16.23
2022-10-13T22:58:23.349Z,16.12
2022-10-13T23:00:51.181Z,16.29
2022-10-13T23:03:19.360Z,16.21
2022-10-13T23:05:48.265Z,16.08
2022-10-13T23:08:15.943Z,16.11
2022-10-13T23:10:43.688Z,15.95
2022-10-13T23:13:12.669Z,15.99
2022-10-13T23:15:40.401Z,15.88
2022-10-13T23:18:08.073Z,16.08
2022-10-13T23:20:35.740Z,15.98
2022-10-13T23:23:03.401Z,15.89
2022-10-13T23:25:31.052Z,16.03
2022-10-13T23:27:58.875Z,15.83
2022-10-13T23:30:28.116Z,15.81
2022-10-13T23:32:55.797Z,15.88
2022-10-13T23:35:23.493Z,15.88
2022-10-13T23:37:52.496Z,15.86
2022-10-13T23:40:20.312Z,15.95
2022-10-13T23:42:48.010Z,15.90
2022-10-13T23:45:15.733Z,16.07
2022-10-13T23:47:44.735Z,16.15
2022-10-13T23:50:12.430Z,16.08
2022-10-13T23:52:40.112Z,15.95
2022-10-13T23:55:08.389Z,15.99
2022-10-13T23:57:36.072Z,15.96
